Terminal Aerodrome Forecast
Issued by NWS

Home | Current Version | Previous Version | Text Only | Print | Product List | Glossary On
Versions: 1 2 3 4 5 6 7 8 9 10 11 12 13 14 15 16 17
000
FTUS46 KSTO 262336
TAFSCK
TAF
KSCK 262336Z 2700/2724 26013KT P6SM BKN035
     FM270100 26011KT P6SM OVC025
     FM271500 29012KT P6SM OVC100
     FM271700 31015G21KT P6SM SCT250=

USA.gov is the U.S. government's official web portal to all federal, state and local government web resources and services.